Time;durP1;ratioP1;P1;durP2;ratioP2;P2;SDS_P1;SDS_P2;PMS_P1;PMS_P2;Temp;Humidity;BMP_temperature;BMP_pressure;BME280_temperature;BME280_humidity;BME280_pressure;Samples;Min_cycle;Max_cycle;Signal;HPM_P1;HPM_P2
2021/04/04 00:00:06;;;;;;;7.07;4.57;;;2.40;70.40;;;;;;6252071;28;20050;-79
2021/04/04 00:03:08;;;;;;;6.73;5.03;;;2.40;70.90;;;;;;6251742;28;20140;-79
2021/04/04 00:06:09;;;;;;;7.77;5.87;;;2.40;71.00;;;;;;6252922;28;20136;-79
2021/04/04 00:09:11;;;;;;;4.93;3.90;;;2.30;71.00;;;;;;6252041;28;20065;-78
2021/04/04 00:12:13;;;;;;;12.17;6.47;;;2.30;71.20;;;;;;6253090;28;20061;-78
2021/04/04 00:15:16;;;;;;;4.50;3.93;;;2.30;71.40;;;;;;6252774;28;20088;-79
2021/04/04 00:18:17;;;;;;;7.03;4.73;;;2.30;71.70;;;;;;6254641;28;20425;-79
2021/04/04 00:21:18;;;;;;;10.90;4.73;;;2.20;71.60;;;;;;6257009;28;20056;-79
2021/04/04 00:24:20;;;;;;;7.07;4.40;;;2.20;71.80;;;;;;6256844;28;20061;-79
2021/04/04 00:27:22;;;;;;;8.70;5.50;;;2.20;72.10;;;;;;6256960;28;20168;-79
2021/04/04 00:30:24;;;;;;;6.03;4.40;;;2.10;72.00;;;;;;6257655;28;20045;-77
2021/04/04 00:33:26;;;;;;;7.77;4.83;;;2.00;72.20;;;;;;6253435;28;20423;-78
2021/04/04 00:36:27;;;;;;;7.03;5.20;;;2.00;72.60;;;;;;6252933;28;20132;-77
2021/04/04 00:39:28;;;;;;;11.93;5.13;;;1.90;72.90;;;;;;6252443;28;20050;-77
2021/04/04 00:42:31;;;;;;;6.30;4.33;;;1.80;73.60;;;;;;6252202;28;20144;-78
2021/04/04 00:45:34;;;;;;;11.23;5.20;;;1.80;74.30;;;;;;6252106;28;20049;-78
2021/04/04 00:48:35;;;;;;;7.10;6.23;;;1.70;74.00;;;;;;6254030;28;20069;-78
2021/04/04 00:51:37;;;;;;;9.67;5.20;;;1.70;74.50;;;;;;6258503;28;20041;-78
2021/04/04 00:54:38;;;;;;;13.97;5.67;;;1.60;74.60;;;;;;6258015;28;20119;-78
2021/04/04 00:57:41;;;;;;;9.70;6.00;;;1.60;74.80;;;;;;6258291;28;20487;-78
2021/04/04 01:00:43;;;;;;;18.50;8.13;;;1.60;75.10;;;;;;6256151;28;20049;-78
2021/04/04 01:03:44;;;;;;;9.40;6.37;;;1.50;75.30;;;;;;6253393;28;20041;-78
2021/04/04 01:06:46;;;;;;;9.70;4.90;;;1.60;75.20;;;;;;6252528;28;20076;-78
2021/04/04 01:09:47;;;;;;;10.10;5.70;;;1.60;75.10;;;;;;6258400;28;20049;-78
2021/04/04 01:12:55;;;;;;;9.30;6.13;;;1.50;75.20;;;;;;6253978;28;20175;-78
2021/04/04 01:16:02;;;;;;;6.88;5.82;;;1.50;75.70;;;;;;6255677;28;20128;-78
2021/04/04 01:19:09;;;;;;;9.00;5.90;;;1.50;76.10;;;;;;6260806;28;20049;-78
2021/04/04 01:22:21;;;;;;;9.50;6.10;;;1.50;76.10;;;;;;6257853;28;20407;-78
2021/04/04 01:25:27;;;;;;;14.40;5.30;;;1.40;76.40;;;;;;6254041;28;20050;-78
2021/04/04 01:28:31;;;;;;;12.23;5.47;;;1.50;76.60;;;;;;6252270;28;20052;-78
2021/04/04 01:31:34;;;;;;;6.60;5.27;;;1.40;76.50;;;;;;6252072;28;20042;-77
2021/04/04 01:34:37;;;;;;;7.83;5.40;;;1.40;76.50;;;;;;6252044;28;20049;-78
2021/04/04 01:37:40;;;;;;;9.07;5.97;;;1.40;76.90;;;;;;6253510;28;20047;-78
2021/04/04 01:40:44;;;;;;;7.37;5.87;;;1.40;76.90;;;;;;6251956;28;20053;-78
2021/04/04 01:43:49;;;;;;;10.80;6.27;;;1.30;77.10;;;;;;6252713;28;20072;-77
2021/04/04 01:46:53;;;;;;;5.93;4.57;;;1.30;77.50;;;;;;6253725;28;20080;-78
2021/04/04 01:49:56;;;;;;;10.47;5.67;;;1.20;77.60;;;;;;6254265;28;20049;-78
2021/04/04 01:53:00;;;;;;;9.07;5.80;;;1.30;77.40;;;;;;6253739;28;20071;-78
2021/04/04 01:56:02;;;;;;;7.50;5.67;;;1.20;77.50;;;;;;6253741;28;20566;-79
2021/04/04 01:59:06;;;;;;;7.77;5.97;;;1.20;77.60;;;;;;6254073;28;20504;-78
2021/04/04 02:02:09;;;;;;;7.80;6.30;;;1.20;77.60;;;;;;6252765;28;20049;-78
2021/04/04 02:05:11;;;;;;;10.17;5.30;;;1.20;77.60;;;;;;6252100;28;20125;-79
2021/04/04 02:08:15;;;;;;;9.03;5.93;;;1.20;77.70;;;;;;6252794;28;20072;-79
2021/04/04 02:11:19;;;;;;;6.00;5.40;;;1.20;77.70;;;;;;6252794;28;20060;-78
2021/04/04 02:14:23;;;;;;;10.43;5.77;;;1.10;77.50;;;;;;6254729;28;20140;-77
2021/04/04 02:17:24;;;;;;;9.83;6.33;;;1.00;77.50;;;;;;6256543;28;20511;-78
2021/04/04 02:20:29;;;;;;;8.80;6.00;;;1.00;77.90;;;;;;6253999;28;20090;-79
2021/04/04 02:23:31;;;;;;;8.00;6.00;;;1.10;78.40;;;;;;6252490;28;20041;-79
2021/04/04 02:26:33;;;;;;;5.70;5.20;;;1.10;78.50;;;;;;6253829;28;20049;-79
2021/04/04 02:29:36;;;;;;;10.70;5.23;;;1.00;78.30;;;;;;6252559;28;20076;-78
2021/04/04 02:32:43;;;;;;;12.10;6.23;;;1.00;78.70;;;;;;6252035;28;20045;-79
2021/04/04 02:35:45;;;;;;;8.23;6.07;;;1.10;79.10;;;;;;6252119;28;20037;-79
2021/04/04 02:38:52;;;;;;;7.03;5.40;;;1.00;78.90;;;;;;6251808;28;20095;-78
2021/04/04 02:41:54;;;;;;;19.27;7.13;;;1.00;79.40;;;;;;6252138;28;20056;-77
2021/04/04 02:44:59;;;;;;;6.93;6.23;;;1.00;79.30;;;;;;6252649;28;20084;-77
2021/04/04 02:48:05;;;;;;;8.40;7.47;;;1.00;79.60;;;;;;6254969;28;20129;-78
2021/04/04 02:51:08;;;;;;;7.87;6.53;;;0.90;80.00;;;;;;6254853;28;20095;-79
2021/04/04 02:54:15;;;;;;;7.57;5.83;;;0.90;80.20;;;;;;6255108;28;20073;-78
2021/04/04 02:57:17;;;;;;;10.27;6.20;;;0.90;80.20;;;;;;6255147;28;20784;-79
2021/04/04 03:00:21;;;;;;;15.03;7.13;;;0.80;80.30;;;;;;6256506;28;20100;-78
2021/04/04 03:03:24;;;;;;;8.10;6.30;;;0.80;80.50;;;;;;6254561;28;20549;-79
2021/04/04 03:06:27;;;;;;;8.30;5.73;;;0.80;80.70;;;;;;6255242;28;20526;-78
2021/04/04 03:09:30;;;;;;;7.77;5.90;;;0.80;80.60;;;;;;6255270;28;20045;-77
2021/04/04 03:12:33;;;;;;;8.53;5.30;;;0.80;80.60;;;;;;6255257;28;20112;-78
2021/04/04 03:15:36;;;;;;;10.67;6.93;;;0.70;80.70;;;;;;6255489;28;20654;-77
2021/04/04 03:18:40;;;;;;;8.37;5.33;;;0.70;80.80;;;;;;6257224;28;20057;-79
2021/04/04 03:21:42;;;;;;;9.90;6.43;;;0.60;81.00;;;;;;6254450;28;20049;-77
2021/04/04 03:24:46;;;;;;;8.87;5.70;;;0.50;81.20;;;;;;6253640;28;20049;-79
2021/04/04 03:27:49;;;;;;;8.60;5.43;;;0.60;81.60;;;;;;6254026;28;20080;-77
2021/04/04 03:30:52;;;;;;;13.33;6.77;;;0.60;81.70;;;;;;6256648;28;20046;-78
2021/04/04 03:33:53;;;;;;;7.83;5.53;;;0.60;81.60;;;;;;6254160;28;20096;-78
2021/04/04 03:36:56;;;;;;;10.30;6.50;;;0.60;81.60;;;;;;6254154;28;20845;-78
2021/04/04 03:39:58;;;;;;;10.27;7.00;;;0.50;81.70;;;;;;6254600;28;20041;-78
2021/04/04 03:43:02;;;;;;;14.70;7.47;;;0.50;81.70;;;;;;6259142;28;20105;-77
2021/04/04 03:46:07;;;;;;;12.00;7.43;;;0.50;82.10;;;;;;6263839;28;20076;-79
2021/04/04 03:49:09;;;;;;;10.87;5.83;;;0.60;82.30;;;;;;6263239;28;20084;-78
2021/04/04 03:52:12;;;;;;;9.37;6.40;;;0.50;82.20;;;;;;6268741;28;20045;-78
2021/04/04 03:55:16;;;;;;;6.73;6.03;;;0.50;82.10;;;;;;6269736;28;20045;-77
2021/04/04 03:58:20;;;;;;;6.87;5.73;;;0.50;82.20;;;;;;6265096;28;20296;-78
2021/04/04 04:01:25;;;;;;;9.30;6.43;;;0.40;82.50;;;;;;6259830;28;20559;-77
2021/04/04 04:04:27;;;;;;;11.67;5.93;;;0.40;83.20;;;;;;6257458;28;20048;-77
2021/04/04 04:07:29;;;;;;;10.77;6.10;;;0.40;82.90;;;;;;6255630;28;20109;-78
2021/04/04 04:10:31;;;;;;;10.53;6.73;;;0.40;82.90;;;;;;6258403;28;20526;-77
2021/04/04 04:13:35;;;;;;;6.80;6.20;;;0.40;83.20;;;;;;6258007;28;20076;-78
2021/04/04 04:16:37;;;;;;;7.27;6.37;;;0.40;83.50;;;;;;6257203;28;20049;-78
2021/04/04 04:19:39;;;;;;;10.10;5.97;;;0.40;83.50;;;;;;6256802;28;20526;-77
2021/04/04 04:22:41;;;;;;;10.83;7.33;;;0.40;83.50;;;;;;6255781;28;20049;-77
2021/04/04 04:25:44;;;;;;;8.97;7.20;;;0.30;83.40;;;;;;6252251;28;20128;-77
2021/04/04 04:28:47;;;;;;;14.03;7.47;;;0.30;83.30;;;;;;6252983;28;20179;-77
2021/04/04 04:31:56;;;;;;;9.57;7.23;;;0.30;83.30;;;;;;6253956;28;20045;-79
2021/04/04 04:34:58;;;;;;;11.17;7.07;;;0.20;83.40;;;;;;6254919;28;20533;-79
2021/04/04 04:38:00;;;;;;;8.63;7.53;;;0.30;83.50;;;;;;6258153;28;20045;-79
2021/04/04 04:41:02;;;;;;;9.97;7.50;;;0.20;83.30;;;;;;6258951;28;20056;-79
2021/04/04 04:44:05;;;;;;;8.53;7.73;;;0.20;83.70;;;;;;6257676;28;20073;-80
2021/04/04 04:47:10;;;;;;;7.50;6.03;;;0.10;83.40;;;;;;6258869;28;20057;-79
2021/04/04 04:50:13;;;;;;;9.40;6.30;;;0.10;83.60;;;;;;6256089;28;20468;-80
2021/04/04 04:53:14;;;;;;;8.67;5.17;;;0.10;83.70;;;;;;6256579;28;20079;-79
2021/04/04 04:56:17;;;;;;;6.50;5.90;;;0.10;84.50;;;;;;6257966;28;20129;-79
2021/04/04 04:59:19;;;;;;;7.80;6.27;;;0.20;84.50;;;;;;6257581;28;20081;-80
2021/04/04 05:02:22;;;;;;;9.43;7.43;;;0.20;84.00;;;;;;6256651;28;20065;-79
2021/04/04 05:05:24;;;;;;;7.07;5.87;;;0.20;84.20;;;;;;6257258;28;20041;-78
2021/04/04 05:08:26;;;;;;;12.60;6.17;;;0.30;84.40;;;;;;6253670;28;20534;-79
2021/04/04 05:11:28;;;;;;;7.27;5.00;;;0.30;84.60;;;;;;6256035;28;20049;-80
2021/04/04 05:14:30;;;;;;;10.80;5.37;;;0.30;84.60;;;;;;6256840;28;20133;-79
2021/04/04 05:17:34;;;;;;;9.97;6.33;;;0.30;84.40;;;;;;6254018;28;20128;-80
2021/04/04 05:20:38;;;;;;;12.83;7.87;;;0.30;84.60;;;;;;6256233;28;20586;-79
2021/04/04 05:23:40;;;;;;;9.80;7.73;;;0.40;84.60;;;;;;6253833;28;20045;-79
2021/04/04 05:26:42;;;;;;;7.77;6.87;;;0.40;84.30;;;;;;6255385;28;20080;-77
2021/04/04 05:29:47;;;;;;;47.63;26.43;;;0.50;84.30;;;;;;6256539;28;20092;-79
2021/04/04 05:32:50;;;;;;;19.60;13.20;;;0.50;84.50;;;;;;6255339;28;20119;-80
2021/04/04 05:35:51;;;;;;;7.47;6.70;;;0.60;84.40;;;;;;6256241;28;20572;-80
2021/04/04 05:38:56;;;;;;;10.40;5.47;;;0.70;84.00;;;;;;6258555;28;20054;-80
2021/04/04 05:41:58;;;;;;;8.00;6.70;;;0.80;83.60;;;;;;6259821;28;20056;-79
2021/04/04 05:45:03;;;;;;;10.33;6.07;;;0.90;83.40;;;;;;6251295;28;20486;-77
2021/04/04 05:48:17;;;;;;;7.67;5.83;;;1.20;83.30;;;;;;6251977;28;20411;-77
2021/04/04 05:51:27;;;;;;;8.07;7.10;;;1.40;82.50;;;;;;6252447;28;20109;-78
2021/04/04 05:55:10;;;;;;;7.43;5.07;;;1.60;82.10;;;;;;6251622;28;20055;-76
2021/04/04 05:58:16;;;;;;;7.97;5.73;;;1.80;81.60;;;;;;6230467;28;20053;-77
2021/04/04 06:01:36;;;;;;;7.73;6.73;;;2.00;80.90;;;;;;6253252;28;20069;-77
2021/04/04 06:05:02;;;;;;;8.87;6.13;;;2.30;80.50;;;;;;6246718;28;20133;-78
2021/04/04 06:08:40;;;;;;;8.37;5.47;;;2.60;79.80;;;;;;6228257;28;20500;-80
2021/04/04 06:11:58;;;;;;;11.67;10.13;;;2.90;78.90;;;;;;6193622;28;20048;-80
2021/04/04 06:15:04;;;;;;;;;;;3.10;78.00;;;;;;6270867;28;20047;-78
2021/04/04 06:18:19;;;;;;;7.57;6.87;;;3.30;77.70;;;;;;6275504;28;19932;-77
2021/04/04 06:21:32;;;;;;;7.27;5.43;;;3.50;77.20;;;;;;6276039;28;20064;-77
2021/04/04 06:24:40;;;;;;;8.07;6.60;;;3.70;76.80;;;;;;6275500;28;20068;-77
2021/04/04 06:27:48;;;;;;;8.90;5.47;;;4.00;76.20;;;;;;6260763;28;20048;-78
2021/04/04 06:30:52;;;;;;;;;;;4.30;75.50;;;;;;6261276;28;20053;-77
2021/04/04 06:34:06;;;;;;;9.60;6.57;;;4.50;75.10;;;;;;6260534;28;20302;-78
2021/04/04 06:37:40;;;;;;;10.85;6.28;;;4.70;74.20;;;;;;6257962;28;20519;-79
2021/04/04 06:40:47;;;;;;;9.75;7.35;;;5.40;84.40;;;;;;6252833;28;20082;-78
2021/04/04 06:43:59;;;;;;;7.35;5.35;;;6.20;75.40;;;;;;6260628;28;20071;-78
2021/04/04 06:47:04;;;;;;;16.80;6.68;;;6.30;71.20;;;;;;6259248;28;20049;-78
2021/04/04 06:50:13;;;;;;;13.00;6.35;;;6.40;69.60;;;;;;6260935;28;20064;-79
2021/04/04 06:53:27;;;;;;;15.68;9.80;;;6.70;67.70;;;;;;6260307;28;20075;-78
2021/04/04 06:56:40;;;;;;;9.55;6.78;;;7.00;66.70;;;;;;6260658;28;20065;-78
2021/04/04 06:59:57;;;;;;;10.63;6.53;;;7.20;65.00;;;;;;6259661;28;20038;-78
2021/04/04 07:03:05;;;;;;;11.23;7.35;;;7.60;64.50;;;;;;6258838;28;20054;-79
2021/04/04 07:06:17;;;;;;;;;;;7.90;63.10;;;;;;6256842;28;20042;-79
2021/04/04 07:09:40;;;;;;;9.38;5.68;;;8.20;61.50;;;;;;6249017;28;19921;-77
2021/04/04 07:13:10;;;;;;;14.82;5.22;;;8.50;59.70;;;;;;6251762;28;20364;-77
2021/04/04 07:16:33;;;;;;;14.43;9.50;;;8.70;58.70;;;;;;6253291;28;20041;-78
2021/04/04 07:20:09;;;;;;;10.05;5.63;;;9.10;58.40;;;;;;6259230;28;20042;-78
2021/04/04 07:23:39;;;;;;;13.75;6.30;;;9.40;57.10;;;;;;6247712;28;20446;-78
2021/04/04 07:26:58;;;;;;;6.22;4.65;;;9.60;56.10;;;;;;6263658;28;20081;-78
2021/04/04 07:33:35;;;;;;;6.95;5.22;;;9.90;54.30;;;;;;6268789;28;20043;-78
2021/04/04 07:36:48;;;;;;;8.00;5.53;;;10.00;54.60;;;;;;6282825;28;20030;-79
2021/04/04 07:39:59;;;;;;;13.73;5.15;;;10.20;53.70;;;;;;6281819;28;20033;-79
2021/04/04 07:43:05;;;;;;;10.70;5.03;;;10.40;53.50;;;;;;6282511;28;20049;-79
2021/04/04 07:46:13;;;;;;;13.45;6.13;;;10.70;52.50;;;;;;6281497;28;20073;-78
2021/04/04 07:49:26;;;;;;;8.00;4.88;;;11.00;51.60;;;;;;6282490;28;20033;-78
2021/04/04 07:52:33;;;;;;;7.70;5.05;;;11.10;50.20;;;;;;6282371;28;20054;-78
2021/04/04 07:55:43;;;;;;;9.97;6.47;;;10.70;50.10;;;;;;6282060;28;20036;-78
2021/04/04 07:58:56;;;;;;;15.73;6.75;;;10.50;50.90;;;;;;6262514;28;20300;-78
2021/04/04 08:02:06;;;;;;;12.55;5.35;;;10.60;51.30;;;;;;6256215;28;20045;-78
2021/04/04 08:05:09;;;;;;;11.38;6.28;;;11.00;50.70;;;;;;6257705;28;20068;-77
2021/04/04 08:08:15;;;;;;;11.40;6.07;;;11.30;49.90;;;;;;6256055;28;20042;-76
2021/04/04 08:11:21;;;;;;;11.48;6.25;;;11.60;49.20;;;;;;6253971;28;20071;-77
2021/04/04 08:14:34;;;;;;;9.68;7.60;;;11.90;48.50;;;;;;6254843;28;20045;-77
2021/04/04 08:17:35;;;;;;;11.52;6.32;;;12.20;47.80;;;;;;6254722;28;20109;-78
2021/04/04 08:20:43;;;;;;;7.90;6.53;;;12.50;47.10;;;;;;6254821;28;20113;-77
2021/04/04 08:23:48;;;;;;;12.05;5.30;;;12.60;46.50;;;;;;6257900;28;20236;-77
2021/04/04 08:26:54;;;;;;;10.30;5.05;;;12.40;46.80;;;;;;6255844;28;20053;-77
2021/04/04 08:30:02;;;;;;;8.27;4.72;;;12.30;47.10;;;;;;6252904;28;20115;-77
2021/04/04 08:33:10;;;;;;;11.10;5.32;;;12.40;47.70;;;;;;6252250;28;20080;-77
2021/04/04 08:36:17;;;;;;;10.50;5.50;;;12.70;46.80;;;;;;6258599;28;20132;-78
2021/04/04 08:39:23;;;;;;;29.17;13.10;;;13.00;46.50;;;;;;6257665;28;20054;-77
2021/04/04 08:42:28;;;;;;;11.18;5.78;;;13.50;45.40;;;;;;6258478;28;20053;-78
2021/04/04 08:45:35;;;;;;;10.48;5.30;;;13.80;45.00;;;;;;6252969;28;20129;-77
2021/04/04 08:48:39;;;;;;;13.33;4.63;;;14.10;44.50;;;;;;6252906;28;20487;-77
2021/04/04 08:51:44;;;;;;;8.23;5.20;;;14.20;43.10;;;;;;6256055;28;20307;-77
2021/04/04 08:54:50;;;;;;;14.35;6.93;;;14.10;42.50;;;;;;6257881;28;20136;-77
2021/04/04 08:57:53;;;;;;;12.35;5.53;;;13.80;43.10;;;;;;6255788;28;20037;-78
2021/04/04 09:01:04;;;;;;;9.27;5.47;;;13.80;43.40;;;;;;6252000;28;20045;-77
2021/04/04 09:04:07;;;;;;;8.35;4.95;;;14.30;43.40;;;;;;6253177;28;20069;-78
2021/04/04 09:07:09;;;;;;;8.40;4.93;;;14.40;42.90;;;;;;6251744;28;20046;-77
2021/04/04 09:10:14;;;;;;;13.40;6.00;;;14.00;42.10;;;;;;6252790;28;20427;-77
2021/04/04 09:13:16;;;;;;;11.27;7.35;;;13.80;43.20;;;;;;6252540;28;20537;-78
2021/04/04 09:16:19;;;;;;;13.52;6.07;;;14.10;43.60;;;;;;6251624;28;20038;-77
2021/04/04 09:19:28;;;;;;;8.68;5.10;;;14.40;42.40;;;;;;6253259;28;20105;-78
2021/04/04 09:22:35;;;;;;;9.68;4.85;;;14.70;41.90;;;;;;6253313;28;20045;-78
2021/04/04 09:25:47;;;;;;;36.97;24.20;;;14.70;41.80;;;;;;6255278;28;20096;-78
2021/04/04 09:28:50;;;;;;;14.98;6.00;;;14.70;41.80;;;;;;6252697;28;20107;-77
2021/04/04 09:31:55;;;;;;;8.02;6.97;;;15.00;40.90;;;;;;6253800;28;20068;-77
2021/04/04 09:34:57;;;;;;;11.35;5.90;;;15.30;40.90;;;;;;6253259;28;20096;-77
2021/04/04 09:38:01;;;;;;;10.40;4.90;;;15.60;39.80;;;;;;6253356;28;20058;-77
2021/04/04 09:41:04;;;;;;;12.00;6.47;;;15.70;39.40;;;;;;6254188;28;20061;-78
2021/04/04 09:44:07;;;;;;;10.32;5.20;;;15.60;39.40;;;;;;6251073;28;20065;-77
2021/04/04 09:47:09;;;;;;;9.50;5.28;;;15.70;39.90;;;;;;6251484;28;20184;-76
2021/04/04 09:50:18;;;;;;;8.88;4.95;;;15.90;40.80;;;;;;6249168;28;20084;-78
2021/04/04 09:53:35;;;;;;;14.90;6.40;;;16.20;39.90;;;;;;6249304;28;20133;-77
2021/04/04 09:56:36;;;;;;;9.57;5.20;;;16.40;39.00;;;;;;6249447;28;20124;-77
2021/04/04 09:59:40;;;;;;;15.05;4.38;;;16.50;38.90;;;;;;6249110;28;20530;-77
2021/04/04 10:02:43;;;;;;;6.45;4.50;;;16.70;37.90;;;;;;6250278;28;20571;-78
2021/04/04 10:05:45;;;;;;;8.10;4.00;;;16.60;37.20;;;;;;6249837;28;20140;-77
2021/04/04 10:08:52;;;;;;;11.00;4.95;;;16.20;37.60;;;;;;6250085;28;20046;-77
2021/04/04 10:11:59;;;;;;;8.45;6.25;;;16.30;38.00;;;;;;6262481;28;20121;-78
2021/04/04 10:15:03;;;;;;;8.52;5.53;;;16.60;38.90;;;;;;6258030;28;20134;-77
2021/04/04 10:18:06;;;;;;;11.77;5.32;;;16.90;37.80;;;;;;6261112;28;20772;-77
2021/04/04 10:21:08;;;;;;;7.18;5.38;;;17.20;37.70;;;;;;6255082;28;20052;-77
2021/04/04 10:24:29;;;;;;;6.30;3.97;;;17.50;36.70;;;;;;6256615;28;20071;-77
2021/04/04 10:27:31;;;;;;;9.82;4.65;;;17.10;36.00;;;;;;6244759;28;20561;-78
2021/04/04 10:30:34;;;;;;;6.82;4.38;;;17.20;35.50;;;;;;6264020;28;20135;-78
2021/04/04 10:33:36;;;;;;;6.80;3.80;;;16.80;36.00;;;;;;6260394;28;20065;-77
2021/04/04 10:36:37;;;;;;;5.90;4.03;;;16.90;35.80;;;;;;6257048;28;20626;-77
2021/04/04 10:39:39;;;;;;;6.22;4.65;;;16.80;35.80;;;;;;6249722;28;20064;-77
2021/04/04 10:42:41;;;;;;;6.28;3.63;;;16.80;34.00;;;;;;6250360;28;20080;-77
2021/04/04 10:46:05;;;;;;;7.43;3.90;;;16.40;34.60;;;;;;6257613;28;20502;-77
2021/04/04 10:49:07;;;;;;;7.13;5.82;;;16.30;36.30;;;;;;6265551;28;20053;-77
2021/04/04 10:52:09;;;;;;;10.07;3.83;;;16.40;36.80;;;;;;6257334;28;20046;-78
2021/04/04 10:55:13;;;;;;;6.82;5.43;;;16.40;34.40;;;;;;6249457;28;20073;-79
2021/04/04 10:58:15;;;;;;;3.75;3.03;;;16.20;35.60;;;;;;6247005;28;20049;-77
2021/04/04 11:01:16;;;;;;;17.15;11.32;;;16.10;35.10;;;;;;6272356;28;20060;-78
2021/04/04 11:04:18;;;;;;;5.60;3.78;;;16.40;35.40;;;;;;6250538;28;20141;-77
2021/04/04 11:07:20;;;;;;;5.35;2.58;;;17.00;34.40;;;;;;6267288;28;20069;-78
2021/04/04 11:10:21;;;;;;;5.03;3.33;;;17.40;34.00;;;;;;6256719;28;20055;-77
2021/04/04 11:13:23;;;;;;;8.73;2.90;;;17.60;33.20;;;;;;6277172;28;20126;-78
2021/04/04 11:16:27;;;;;;;3.67;2.75;;;17.40;33.00;;;;;;6279057;28;20106;-78
2021/04/04 11:19:30;;;;;;;10.43;6.88;;;17.40;33.10;;;;;;6284494;28;20041;-77
2021/04/04 11:22:33;;;;;;;4.95;3.53;;;17.60;32.90;;;;;;6274877;28;20183;-77
2021/04/04 11:25:35;;;;;;;6.10;3.05;;;18.00;32.30;;;;;;6258763;28;20054;-78
2021/04/04 11:28:36;;;;;;;7.38;3.83;;;18.00;31.50;;;;;;6263445;28;20072;-77
2021/04/04 11:31:37;;;;;;;9.57;3.75;;;17.60;32.10;;;;;;6262911;28;20521;-77
2021/04/04 11:34:40;;;;;;;14.43;3.17;;;17.50;32.70;;;;;;6266717;28;20140;-77
2021/04/04 11:37:43;;;;;;;8.73;3.97;;;17.30;34.10;;;;;;6252514;28;20037;-78
2021/04/04 11:41:04;;;;;;;9.05;4.80;;;17.70;33.80;;;;;;6262739;28;20112;-77
2021/04/04 11:44:22;;;;;;;7.80;3.88;;;18.30;33.50;;;;;;6256901;28;20072;-77
2021/04/04 11:47:24;;;;;;;5.88;3.75;;;18.70;32.40;;;;;;6264654;28;20056;-78
2021/04/04 11:50:26;;;;;;;13.90;7.05;;;18.90;31.30;;;;;;6263720;28;20080;-78
2021/04/04 11:53:40;;;;;;;4.93;3.75;;;19.10;32.00;;;;;;6261288;28;20048;-78
2021/04/04 11:56:44;;;;;;;7.38;4.32;;;19.20;31.90;;;;;;6261642;28;20045;-77
2021/04/04 11:59:46;;;;;;;5.72;3.88;;;19.10;32.10;;;;;;6252323;28;20128;-79
2021/04/04 12:02:58;;;;;;;7.18;4.57;;;18.80;32.40;;;;;;6258867;28;20134;-77
2021/04/04 12:06:00;;;;;;;7.60;4.70;;;18.80;32.30;;;;;;6264505;28;20124;-79
2021/04/04 12:09:02;;;;;;;6.55;4.38;;;18.40;32.70;;;;;;6251188;28;20499;-79
2021/04/04 12:12:05;;;;;;;8.98;4.60;;;17.90;33.00;;;;;;6259266;28;20072;-78
2021/04/04 12:15:08;;;;;;;10.65;4.38;;;17.50;34.40;;;;;;6271851;28;20057;-79
2021/04/04 12:18:10;;;;;;;8.70;5.55;;;17.80;34.60;;;;;;6267748;28;20123;-79
2021/04/04 12:21:12;;;;;;;8.85;4.97;;;18.40;33.70;;;;;;6276373;28;20053;-78
2021/04/04 12:24:13;;;;;;;6.90;4.57;;;18.70;32.90;;;;;;6271273;28;20037;-78
2021/04/04 12:27:16;;;;;;;9.45;4.47;;;18.90;32.70;;;;;;6274101;28;20503;-78
2021/04/04 12:30:26;;;;;;;6.15;4.13;;;19.20;32.50;;;;;;6266183;28;20061;-83
2021/04/04 12:33:38;;;;;;;8.25;4.38;;;19.20;32.20;;;;;;6268583;28;20418;-78
2021/04/04 12:36:44;;;;;;;9.68;3.90;;;19.30;31.80;;;;;;6261786;28;20049;-78
2021/04/04 12:39:46;;;;;;;9.82;4.25;;;19.30;31.30;;;;;;6278129;28;20464;-79
2021/04/04 12:42:53;;;;;;;7.50;3.88;;;19.40;31.60;;;;;;6262515;28;20076;-79
2021/04/04 12:45:55;;;;;;;7.10;4.43;;;19.20;31.00;;;;;;6276833;28;20041;-80
2021/04/04 12:48:56;;;;;;;7.97;4.70;;;19.30;31.20;;;;;;6259818;28;20132;-79
2021/04/04 12:51:58;;;;;;;8.73;4.32;;;19.40;31.00;;;;;;6255043;28;20083;-79
2021/04/04 12:55:09;;;;;;;4.25;3.78;;;19.50;31.00;;;;;;6261368;28;20128;-79
2021/04/04 12:58:11;;;;;;;9.32;4.97;;;19.60;30.70;;;;;;6266391;28;20073;-77
2021/04/04 13:01:15;;;;;;;8.90;4.40;;;19.70;30.90;;;;;;6253262;28;20050;-79
2021/04/04 13:04:17;;;;;;;8.30;4.18;;;19.90;30.60;;;;;;6252872;28;20075;-78
2021/04/04 13:07:19;;;;;;;7.95;4.40;;;19.90;30.10;;;;;;6273602;28;20044;-78
2021/04/04 13:10:21;;;;;;;12.77;4.57;;;20.00;30.00;;;;;;6265482;28;20507;-79
2021/04/04 13:13:25;;;;;;;4.45;3.30;;;20.00;29.80;;;;;;6259888;28;20041;-79
2021/04/04 13:16:27;;;;;;;7.03;4.20;;;19.90;29.80;;;;;;6280894;28;20049;-78
2021/04/04 13:19:37;;;;;;;7.95;3.95;;;19.80;29.60;;;;;;6263886;28;20414;-80
2021/04/04 13:22:40;;;;;;;9.85;4.30;;;19.70;29.90;;;;;;6272647;28;20052;-81
2021/04/04 13:25:42;;;;;;;9.93;4.30;;;19.50;30.10;;;;;;6259868;28;20091;-77
2021/04/04 13:28:44;;;;;;;6.35;3.50;;;19.60;30.60;;;;;;6253723;28;20045;-79
2021/04/04 13:31:52;;;;;;;7.60;4.07;;;19.70;30.00;;;;;;6265558;28;20136;-80
2021/04/04 13:34:53;;;;;;;7.25;3.97;;;19.60;30.00;;;;;;6258864;28;20053;-80
2021/04/04 13:37:56;;;;;;;7.72;4.75;;;19.60;29.50;;;;;;6267167;28;20091;-80
2021/04/04 13:40:58;;;;;;;7.88;4.18;;;19.40;30.00;;;;;;6254257;28;20049;-78
2021/04/04 13:44:07;;;;;;;5.97;4.65;;;19.40;29.60;;;;;;6269009;28;20124;-80
2021/04/04 13:47:20;;;;;;;5.28;3.60;;;19.50;29.50;;;;;;6279579;28;20522;-78
2021/04/04 13:50:22;;;;;;;9.00;5.78;;;19.60;29.00;;;;;;6258202;28;20049;-79
2021/04/04 13:53:33;;;;;;;8.68;3.53;;;19.60;29.10;;;;;;6270053;28;20103;-80
2021/04/04 13:56:46;;;;;;;6.07;3.72;;;19.70;29.00;;;;;;6273290;28;20049;-80
2021/04/04 13:59:50;;;;;;;6.50;3.63;;;19.80;28.80;;;;;;6273459;28;20133;-80
2021/04/04 14:02:52;;;;;;;10.38;4.50;;;19.70;29.20;;;;;;6262414;28;20076;-78
2021/04/04 14:06:08;;;;;;;5.97;4.50;;;19.90;28.90;;;;;;6269548;28;20534;-79
2021/04/04 14:09:11;;;;;;;9.57;4.88;;;19.90;29.50;;;;;;6253170;28;20088;-79
2021/04/04 14:12:15;;;;;;;5.57;3.85;;;19.80;29.40;;;;;;6253901;28;20064;-80
2021/04/04 14:15:16;;;;;;;7.65;4.35;;;19.80;28.90;;;;;;6254024;28;20140;-80
2021/04/04 14:18:24;;;;;;;6.75;4.13;;;19.80;29.20;;;;;;6254100;28;20045;-80
2021/04/04 14:21:26;;;;;;;5.50;3.70;;;19.90;28.80;;;;;;6263896;28;20459;-79
2021/04/04 14:24:28;;;;;;;6.13;4.18;;;19.50;28.80;;;;;;6277354;28;20064;-79
2021/04/04 14:27:30;;;;;;;7.50;3.40;;;19.40;28.80;;;;;;6263744;28;20061;-79
2021/04/04 14:30:31;;;;;;;8.18;4.65;;;19.40;29.00;;;;;;6262457;28;20107;-78
2021/04/04 14:33:33;;;;;;;7.78;4.57;;;19.40;28.60;;;;;;6275807;28;20047;-80
2021/04/04 14:36:34;;;;;;;9.73;3.78;;;19.60;28.70;;;;;;6261102;28;20075;-80
2021/04/04 14:39:36;;;;;;;6.90;4.57;;;19.40;28.60;;;;;;6263318;28;20155;-80
2021/04/04 14:42:38;;;;;;;9.25;3.83;;;19.40;29.00;;;;;;6279238;28;20135;-81
2021/04/04 14:45:39;;;;;;;7.88;4.13;;;19.00;29.00;;;;;;6274164;28;20065;-80
2021/04/04 14:48:42;;;;;;;8.38;4.72;;;19.00;29.10;;;;;;6273467;28;20068;-79
2021/04/04 14:51:43;;;;;;;7.85;4.40;;;19.20;29.30;;;;;;6259223;28;20056;-79
2021/04/04 14:54:46;;;;;;;13.25;4.88;;;19.40;29.30;;;;;;6259332;28;20147;-78
2021/04/04 14:57:47;;;;;;;8.55;3.83;;;19.30;28.90;;;;;;6277057;28;20465;-78
2021/04/04 15:00:49;;;;;;;10.48;5.53;;;19.20;29.60;;;;;;6266147;28;20045;-80
2021/04/04 15:03:51;;;;;;;9.10;5.68;;;19.20;29.90;;;;;;6267150;28;20065;-80
2021/04/04 15:06:52;;;;;;;5.97;4.70;;;19.10;29.90;;;;;;6278353;28;20045;-80
2021/04/04 15:09:54;;;;;;;8.35;4.60;;;19.00;30.00;;;;;;6272181;28;20534;-79
2021/04/04 15:12:56;;;;;;;9.23;5.28;;;18.80;29.80;;;;;;6255303;28;20050;-80
2021/04/04 15:15:58;;;;;;;8.05;4.38;;;18.40;30.60;;;;;;6269624;28;20049;-82
2021/04/04 15:18:59;;;;;;;8.45;4.80;;;18.10;31.20;;;;;;6281469;28;20052;-81
2021/04/04 15:22:00;;;;;;;7.65;5.30;;;17.70;32.00;;;;;;6268509;28;20065;-81
2021/04/04 15:25:03;;;;;;;7.38;4.80;;;17.40;32.20;;;;;;6259120;28;20095;-82
2021/04/04 15:28:05;;;;;;;10.25;5.65;;;17.20;32.20;;;;;;6268185;28;20091;-81
2021/04/04 15:31:06;;;;;;;7.47;5.13;;;16.90;33.00;;;;;;6273417;28;20076;-82
2021/04/04 15:34:07;;;;;;;10.02;4.82;;;16.80;33.60;;;;;;6272882;28;20064;-80
2021/04/04 15:37:09;;;;;;;16.20;6.28;;;16.70;33.60;;;;;;6261518;28;20471;-78
2021/04/04 15:40:12;;;;;;;9.63;4.60;;;16.70;34.00;;;;;;6263325;28;20049;-79
2021/04/04 15:43:14;;;;;;;8.18;5.78;;;16.60;33.80;;;;;;6254999;28;20133;-76
2021/04/04 15:46:16;;;;;;;9.90;7.68;;;16.50;33.80;;;;;;6279290;28;20095;-78
2021/04/04 15:49:17;;;;;;;7.75;4.63;;;16.50;34.10;;;;;;6262027;28;20045;-79
2021/04/04 15:52:19;;;;;;;10.38;5.53;;;16.50;33.80;;;;;;6281735;28;20041;-80
2021/04/04 15:55:21;;;;;;;7.15;4.88;;;16.40;34.30;;;;;;6269469;28;20084;-80
2021/04/04 15:58:23;;;;;;;10.50;5.30;;;16.40;34.40;;;;;;6269529;28;20109;-79
2021/04/04 16:01:24;;;;;;;12.32;5.75;;;16.20;35.20;;;;;;6270664;28;20065;-79
2021/04/04 16:04:26;;;;;;;7.75;4.82;;;16.00;35.00;;;;;;6287416;28;20052;-78
2021/04/04 16:07:27;;;;;;;7.57;6.07;;;15.90;35.50;;;;;;6274017;28;20060;-77